BlazeArts Kft. Speed Test Log

Averages  Max Speed    
1 to 25 of 103** for Host BlazeArts Kft.
Time
  
    Size    Speed   User ConnectID    
1/9/19 12:46:11 pm CZ 256 kB 132 kbps 17 kB/s1699569012006W__pOUAO 
12/15/18 6:04:51 am CZ 256 kB 383 kbps 48 kB/s169956901200Sj9yZQxrq 
12/14/18 3:14:26 pm CZ 4.3 MB 1.6 Mbps 200 kB/s169956901200xWHdwwNw0 
12/11/18 6:05:35 pm CZ 3.7 MB 3.51 Mbps 439 kB/s169956901200zIn4pSrF5 
12/3/18 4:23:55 pm CZ 5.2 MB 1.59 Mbps 199 kB/s1699568879950vmGaP-xT 
10/28/18 8:33:18 pm CZ 704 kB 1.15 Mbps 143 kB/s169956901200xYziWG6c8 
10/28/18 8:33:09 pm CZ 4.8 MB 7.2 Mbps 900 kB/s1699569012003w9pdFcDi 
10/28/18 8:32:54 pm CZ 640 kB 1.01 Mbps 126 kB/s169956901200Y0YA18-Hr 
10/28/18 8:32:45 pm CZ 5.2 MB 7.83 Mbps 979 kB/s1699569012007jWv_gXZD 
10/28/18 12:00:38 pm CZ 256 kB 323 kbps 40 kB/s169956901200kzQ5BhOe2 
10/27/18 7:45:24 pm CZ 640 kB 1.04 Mbps 129 kB/s169956901200RiO4wojpX 
10/27/18 7:45:15 pm CZ 7 MB 3.16 Mbps 395 kB/s169956901200Ua6L8FTfo 
10/27/18 6:41:54 pm CZ 576 kB 980 kbps 123 kB/s169956901200TtwVVqOtg 
10/27/18 6:41:45 pm CZ 6.8 MB 7.57 Mbps 946 kB/s169956901200gyGc_xcWo 
10/22/18 1:27:16 pm CZ 512 kB 853 kbps 107 kB/s169956901200DtFNfC4IX 
10/22/18 1:27:08 pm CZ 6.3 MB 6.09 Mbps 762 kB/s169956901200fNDJRlLt4 
10/22/18 12:11:06 pm CZ 448 kB 758 kbps 95 kB/s169956901200TBypykwPH 
10/22/18 12:10:57 pm CZ 5.5 MB 9.85 Mbps 1.23 MB/s1699569012009hHaMKKsi 
10/22/18 10:23:23 am CZ 448 kB 812 kbps 102 kB/s169956901200FY0Llq~F~ 
10/22/18 10:23:15 am CZ 4.2 MB 7.27 Mbps 909 kB/s169956901200fQWqRnIh2 
10/22/18 10:10:15 am CZ 384 kB 699 kbps 87 kB/s169956901200fHrycP8Ce 
10/22/18 10:10:07 am CZ 3.5 MB 5.58 Mbps 697 kB/s1699569012002ltbmgTfe 
10/22/18 10:02:19 am CZ 256 kB 517 kbps 65 kB/s1699569012003AJTiDhfK 
10/22/18 10:02:10 am CZ 7.3 MB 6.39 Mbps 799 kB/s169956901200GtBhrm8C3 
10/20/18 7:52:12 pm CZ 320 kB 567 kbps 71 kB/s169956901200Xi7QwZUYo 
  
** Partial Results: The most recent results have been displayed. Results over 50 Mbps are highlighted.
Calculated from graphed results above not entire query.
Displaying Internet Speed Test results for Host BlazeArts Kft.

Minimum

Min 0.13 Mbps : 0.52 Mbps

Average

Avg 4.56 Mbps : 0.84 Mbps

Maximum

Max 9.85 Mbps : 1.15 Mbps

Minimum

Min: 0.13 Mbps : 0.52 Mbps |

Average

Avg: 4.56 Mbps : 0.84 Mbps |

Maximum

Max: 9.85 Mbps : 1.15 Mbps